createdAt,value
2018-05-25T00:01:42.517Z,17.62
2018-05-25T00:02:35.867Z,17.62
2018-05-25T00:03:57.523Z,17.63
2018-05-25T00:04:57.118Z,17.57
2018-05-25T00:07:08.878Z,17.54
2018-05-25T00:08:29.913Z,17.58
2018-05-25T00:09:08.889Z,17.49
2018-05-25T00:10:08.887Z,17.46
2018-05-25T00:11:09.387Z,17.47
2018-05-25T00:12:30.593Z,17.57
2018-05-25T00:13:13.818Z,17.62
2018-05-25T00:14:09.385Z,17.60
2018-05-25T00:16:41.204Z,17.65
2018-05-25T00:17:41.213Z,17.70
2018-05-25T00:18:41.211Z,17.66
2018-05-25T00:20:02.712Z,17.66
2018-05-25T00:20:40.947Z,17.66
2018-05-25T00:21:41.710Z,17.47
2018-05-25T00:22:41.711Z,17.63
2018-05-25T00:23:42.210Z,17.57
2018-05-25T00:25:02.415Z,17.63
2018-05-25T00:25:42.213Z,17.57
2018-05-25T00:26:43.209Z,17.57
2018-05-25T00:27:42.710Z,17.62
2018-05-25T00:31:51.838Z,17.45
2018-05-25T00:32:51.834Z,17.45
2018-05-25T00:33:45.834Z,17.39
2018-05-25T00:35:13.334Z,17.42
2018-05-25T00:36:07.334Z,17.42
2018-05-25T00:36:47.834Z,17.40
2018-05-25T00:37:46.334Z,17.38
2018-05-25T00:40:19.529Z,17.38
2018-05-25T00:41:39.098Z,17.38
2018-05-25T00:42:18.096Z,17.35
2018-05-25T00:43:17.765Z,17.38
2018-05-25T00:44:39.597Z,17.42
2018-05-25T00:45:39.598Z,17.35
2018-05-25T00:46:20.614Z,17.40
2018-05-25T00:47:19.097Z,17.40
2018-05-25T00:48:19.096Z,17.46
2018-05-25T00:49:19.098Z,17.42
2018-05-25T00:50:33.098Z,17.42
2018-05-25T00:52:50.855Z,17.39
2018-05-25T00:53:50.868Z,17.47
2018-05-25T00:54:54.794Z,17.40
2018-05-25T00:55:54.797Z,17.49
2018-05-25T00:58:22.689Z,17.46
2018-05-25T00:59:22.696Z,17.46
2018-05-25T01:00:22.171Z,17.45
2018-05-25T01:02:54.423Z,17.42
2018-05-25T01:03:54.430Z,17.39
2018-05-25T01:04:54.433Z,17.49
2018-05-25T01:05:54.033Z,17.39
2018-05-25T01:07:08.973Z,17.35
2018-05-25T01:07:54.297Z,17.40
2018-05-25T01:09:15.928Z,17.38
2018-05-25T01:09:55.427Z,17.35
2018-05-25T01:10:55.430Z,17.38
2018-05-25T01:12:56.864Z,17.40
2018-05-25T01:14:16.930Z,17.36
2018-05-25T01:16:27.219Z,17.38
2018-05-25T01:17:27.226Z,17.27
2018-05-25T01:18:27.225Z,17.40
2018-05-25T01:19:49.661Z,17.36
2018-05-25T01:20:26.957Z,17.39
2018-05-25T01:21:28.659Z,17.36
2018-05-25T01:22:50.727Z,17.25
2018-05-25T01:25:20.520Z,17.22
2018-05-25T01:25:59.503Z,17.30
2018-05-25T01:26:59.503Z,17.30
2018-05-25T01:29:51.502Z,17.33
2018-05-25T01:30:34.264Z,17.35
2018-05-25T01:31:45.265Z,17.28
2018-05-25T01:32:33.765Z,17.33
2018-05-25T01:33:53.697Z,17.28
2018-05-25T01:34:31.768Z,17.28
2018-05-25T01:35:31.769Z,17.25
2018-05-25T01:36:53.264Z,17.22
2018-05-25T01:37:54.701Z,17.32
2018-05-25T01:38:34.264Z,17.20
2018-05-25T01:39:53.265Z,17.32
2018-05-25T01:40:32.779Z,17.27
2018-05-25T01:41:53.771Z,17.32
2018-05-25T01:42:32.765Z,17.25
2018-05-25T01:43:34.197Z,17.36
2018-05-25T01:44:33.266Z,17.32
2018-05-25T01:45:36.197Z,17.28
2018-05-25T01:46:33.262Z,17.25
2018-05-25T01:47:33.284Z,17.27
2018-05-25T01:48:51.200Z,17.35
2018-05-25T01:49:54.765Z,17.21
2018-05-25T01:50:33.769Z,17.21
2018-05-25T01:51:33.772Z,17.21
2018-05-25T01:52:34.265Z,17.27
2018-05-25T01:53:33.549Z,17.22
2018-05-25T01:54:34.265Z,17.28
2018-05-25T01:55:34.261Z,17.09
2018-05-25T01:56:34.772Z,17.18
2018-05-25T01:58:03.197Z,17.10
2018-05-25T01:58:34.795Z,17.22
2018-05-25T01:59:55.767Z,17.09
2018-05-25T02:00:56.268Z,17.09
2018-05-25T02:01:35.261Z,17.20
2018-05-25T02:02:57.273Z,17.15
2018-05-25T02:03:37.264Z,17.09
2018-05-25T02:07:44.475Z,17.22
2018-05-25T02:08:38.485Z,17.12
2018-05-25T02:09:59.485Z,17.12
2018-05-25T02:12:10.262Z,17.09
2018-05-25T02:13:10.259Z,17.10
2018-05-25T02:15:43.947Z,17.07
2018-05-25T02:16:41.911Z,17.18
2018-05-25T02:17:44.342Z,17.12
2018-05-25T02:20:13.665Z,17.05
2018-05-25T02:21:13.672Z,17.06
2018-05-25T02:22:13.672Z,17.07
2018-05-25T02:23:14.175Z,17.05
2018-05-25T02:24:14.178Z,17.05
2018-05-25T02:25:14.174Z,17.02
2018-05-25T02:26:13.662Z,17.00
2018-05-25T02:27:14.689Z,17.06
2018-05-25T02:28:15.670Z,16.96
2018-05-25T02:29:14.672Z,17.03
2018-05-25T02:30:14.672Z,16.98
2018-05-25T02:31:14.271Z,17.03
2018-05-25T02:32:15.174Z,16.98
2018-05-25T02:33:15.171Z,17.06
2018-05-25T02:34:15.175Z,16.98
2018-05-25T02:35:15.672Z,16.99
2018-05-25T02:36:41.608Z,16.99
2018-05-25T02:37:15.673Z,16.96
2018-05-25T02:38:15.679Z,16.96
2018-05-25T02:42:20.340Z,16.99
2018-05-25T02:44:50.408Z,16.95
2018-05-25T02:45:50.405Z,16.96
2018-05-25T02:46:50.409Z,17.02
2018-05-25T02:47:50.905Z,16.96
2018-05-25T02:48:52.908Z,16.91
2018-05-25T02:50:14.844Z,16.90
2018-05-25T02:50:50.911Z,16.91
2018-05-25T02:51:51.411Z,16.84
2018-05-25T02:52:50.633Z,16.88
2018-05-25T02:53:51.408Z,16.91
2018-05-25T02:54:51.405Z,16.92
2018-05-25T02:55:52.908Z,16.82
2018-05-25T02:56:51.910Z,16.85
2018-05-25T02:57:51.255Z,16.77
2018-05-25T02:58:51.913Z,16.73
2018-05-25T02:59:51.504Z,16.80
2018-05-25T03:00:52.410Z,16.82
2018-05-25T03:02:02.086Z,16.78
2018-05-25T03:02:52.408Z,16.84
2018-05-25T03:04:08.340Z,16.85
2018-05-25T03:04:52.907Z,16.77
2018-05-25T03:05:52.907Z,16.81
2018-05-25T03:06:52.393Z,16.70
2018-05-25T03:07:56.370Z,16.72
2018-05-25T03:08:53.408Z,16.72
2018-05-25T03:09:53.416Z,16.70
2018-05-25T03:10:53.407Z,16.66
2018-05-25T03:11:53.019Z,16.65
2018-05-25T03:12:53.912Z,16.60
2018-05-25T03:13:53.908Z,16.66
2018-05-25T03:14:53.907Z,16.63
2018-05-25T03:16:16.405Z,16.59
2018-05-25T03:16:54.430Z,16.60
2018-05-25T03:17:54.408Z,16.59
2018-05-25T03:18:54.403Z,16.57
2018-05-25T03:19:54.907Z,16.59
2018-05-25T03:21:15.908Z,16.54
2018-05-25T03:21:54.924Z,16.54
2018-05-25T03:23:15.982Z,16.51
2018-05-25T03:23:55.406Z,16.52
2018-05-25T03:26:26.664Z,16.48
2018-05-25T03:27:26.062Z,16.37
2018-05-25T03:28:47.678Z,16.41
2018-05-25T03:29:27.169Z,16.41
2018-05-25T03:32:00.555Z,16.41
2018-05-25T03:33:00.556Z,16.34
2018-05-25T03:33:58.565Z,16.40
2018-05-25T03:35:01.058Z,16.36
2018-05-25T03:35:59.056Z,16.37
2018-05-25T03:37:05.054Z,16.33
2018-05-25T03:38:20.057Z,16.26
2018-05-25T03:40:44.829Z,16.30
2018-05-25T03:41:30.836Z,16.18
2018-05-25T03:42:30.435Z,16.25
2018-05-25T03:43:52.335Z,16.22
2018-05-25T03:44:31.340Z,16.18
2018-05-25T03:45:31.335Z,16.25
2018-05-25T03:46:53.839Z,16.17
2018-05-25T03:47:37.843Z,16.25
2018-05-25T03:48:33.810Z,16.30
2018-05-25T03:49:32.767Z,16.17
2018-05-25T03:50:32.335Z,16.23
2018-05-25T03:51:52.549Z,16.26
2018-05-25T03:52:32.331Z,16.25
2018-05-25T03:53:33.333Z,16.29
2018-05-25T03:54:32.834Z,16.23
2018-05-25T03:57:04.260Z,16.25
2018-05-25T03:58:03.609Z,16.25
2018-05-25T03:59:04.243Z,16.29
2018-05-25T04:01:36.517Z,16.29
2018-05-25T04:02:36.502Z,16.30
2018-05-25T04:03:36.498Z,16.29
2018-05-25T04:04:37.466Z,16.26
2018-05-25T04:05:58.999Z,16.23
2018-05-25T04:06:59.985Z,16.25
2018-05-25T04:07:51.002Z,16.30
2018-05-25T04:10:29.765Z,16.25
2018-05-25T04:11:08.779Z,16.26
2018-05-25T04:12:32.262Z,16.29
2018-05-25T04:13:30.283Z,16.16
2018-05-25T04:14:30.275Z,16.32
2018-05-25T04:15:11.310Z,16.27
2018-05-25T04:16:31.272Z,16.26
2018-05-25T04:17:29.871Z,16.27
2018-05-25T04:18:15.779Z,16.36
2018-05-25T04:19:09.778Z,16.25
2018-05-25T04:20:11.242Z,16.27
2018-05-25T04:21:10.275Z,16.27
2018-05-25T04:22:10.280Z,16.29
2018-05-25T04:23:10.284Z,16.41
2018-05-25T04:24:10.275Z,16.26
2018-05-25T04:25:12.772Z,16.32
2018-05-25T04:27:56.182Z,16.30
2018-05-25T04:28:42.182Z,16.22
2018-05-25T04:29:42.175Z,16.26
2018-05-25T04:32:13.193Z,16.36
2018-05-25T04:33:34.276Z,16.40
2018-05-25T04:34:13.946Z,16.34
2018-05-25T04:35:13.952Z,16.37
2018-05-25T04:36:14.444Z,16.33
2018-05-25T04:39:06.583Z,16.37
2018-05-25T04:40:07.334Z,16.36
2018-05-25T04:41:08.337Z,16.36
2018-05-25T04:42:09.765Z,16.30
2018-05-25T04:43:07.833Z,16.32
2018-05-25T04:44:07.831Z,16.34
2018-05-25T04:45:07.831Z,16.36
2018-05-25T04:45:46.829Z,16.25
2018-05-25T04:47:08.337Z,16.26
2018-05-25T04:48:07.535Z,16.33
2018-05-25T04:50:39.799Z,16.34
2018-05-25T04:51:20.809Z,16.33
2018-05-25T04:52:20.794Z,16.30
2018-05-25T04:53:21.310Z,16.30
2018-05-25T04:54:40.310Z,16.29
2018-05-25T04:55:19.317Z,16.22
2018-05-25T04:56:19.309Z,16.10
2018-05-25T04:57:21.810Z,16.25
2018-05-25T04:58:21.321Z,16.26
2018-05-25T04:59:31.243Z,16.25
2018-05-25T05:00:19.813Z,16.23
2018-05-25T05:01:40.410Z,16.29
2018-05-25T05:02:41.310Z,16.25
2018-05-25T05:03:20.310Z,16.30
2018-05-25T05:04:20.307Z,16.34
2018-05-25T05:05:22.817Z,16.40
2018-05-25T05:06:20.811Z,16.40
2018-05-25T05:07:34.809Z,16.47
2018-05-25T05:08:20.809Z,16.48
2018-05-25T05:09:44.310Z,16.50
2018-05-25T05:10:35.309Z,16.51
2018-05-25T05:11:20.662Z,16.52
2018-05-25T05:13:52.945Z,16.59
2018-05-25T05:14:53.009Z,16.66
2018-05-25T05:15:52.947Z,16.73
2018-05-25T05:16:53.446Z,16.75
2018-05-25T05:17:59.451Z,16.70
2018-05-25T05:19:14.447Z,16.84
2018-05-25T05:19:53.446Z,16.80
2018-05-25T05:21:07.950Z,16.80
2018-05-25T05:21:53.174Z,16.78
2018-05-25T05:22:53.955Z,16.81
2018-05-25T05:23:53.947Z,16.85
2018-05-25T05:24:54.447Z,16.95
2018-05-25T05:25:54.453Z,16.92
2018-05-25T05:26:54.448Z,17.05
2018-05-25T05:27:53.930Z,16.99
2018-05-25T05:28:54.948Z,17.00
2018-05-25T05:29:54.946Z,17.02
2018-05-25T05:30:56.411Z,17.02
2018-05-25T05:31:56.958Z,17.07
2018-05-25T05:32:54.946Z,17.15
2018-05-25T05:33:56.886Z,17.10
2018-05-25T05:34:54.632Z,17.17
2018-05-25T05:36:16.447Z,17.15
2018-05-25T05:37:19.879Z,17.32
2018-05-25T05:37:55.446Z,17.33
2018-05-25T05:39:01.961Z,17.28
2018-05-25T05:40:16.946Z,17.33
2018-05-25T05:41:16.945Z,17.40
2018-05-25T05:41:55.947Z,17.49
2018-05-25T05:43:16.534Z,17.47
2018-05-25T05:44:17.456Z,17.46
2018-05-25T05:45:17.447Z,17.55
2018-05-25T05:46:17.447Z,17.58
2018-05-25T05:47:16.906Z,17.66
2018-05-25T05:47:56.947Z,17.70
2018-05-25T05:49:17.946Z,17.68
2018-05-25T05:50:17.946Z,17.68
2018-05-25T05:50:56.960Z,17.74
2018-05-25T05:51:58.422Z,17.76
2018-05-25T05:53:03.454Z,17.76
2018-05-25T05:53:57.454Z,17.77
2018-05-25T05:54:58.884Z,17.76
2018-05-25T05:55:57.945Z,17.76
2018-05-25T05:58:51.267Z,17.96
2018-05-25T05:59:50.332Z,17.87
2018-05-25T06:00:29.346Z,18.04
2018-05-25T06:01:32.767Z,18.05
2018-05-25T06:02:29.842Z,18.07
2018-05-25T06:03:50.835Z,17.91
2018-05-25T06:04:29.840Z,17.89
2018-05-25T06:07:03.068Z,18.04
2018-05-25T06:08:01.597Z,17.92
2018-05-25T06:09:01.598Z,18.02
2018-05-25T06:10:02.097Z,18.01
2018-05-25T06:11:02.576Z,17.98
2018-05-25T06:12:23.108Z,18.04
2018-05-25T06:13:01.576Z,18.02
2018-05-25T06:14:01.666Z,18.10
2018-05-25T06:15:23.597Z,18.20
2018-05-25T06:16:02.816Z,18.35
2018-05-25T06:17:01.935Z,18.36
2018-05-25T06:18:03.529Z,18.38
2018-05-25T06:19:17.127Z,18.42
2018-05-25T06:20:03.121Z,18.41
2018-05-25T06:21:03.122Z,18.51
2018-05-25T06:22:03.098Z,18.50
2018-05-25T06:23:02.724Z,18.54
2018-05-25T06:24:03.597Z,18.56
2018-05-25T06:25:02.954Z,18.62
2018-05-25T06:26:03.598Z,18.72
2018-05-25T06:27:31.099Z,18.76
2018-05-25T06:28:03.328Z,18.76
2018-05-25T06:29:04.098Z,18.74
2018-05-25T06:30:04.107Z,18.83
2018-05-25T06:31:04.594Z,18.82
2018-05-25T06:32:04.598Z,18.84
2018-05-25T06:33:03.978Z,18.87
2018-05-25T06:34:04.600Z,18.87
2018-05-25T06:35:05.098Z,18.84
2018-05-25T06:36:04.324Z,18.89
2018-05-25T06:37:26.098Z,18.99
2018-05-25T06:38:05.118Z,19.02
2018-05-25T06:40:36.173Z,19.06
2018-05-25T06:41:36.911Z,19.02
2018-05-25T06:42:36.390Z,19.05
2018-05-25T06:44:01.851Z,19.01
2018-05-25T06:44:37.411Z,19.02
2018-05-25T06:45:37.411Z,19.12
2018-05-25T06:46:37.417Z,19.21
2018-05-25T06:47:37.410Z,19.34
2018-05-25T06:48:37.910Z,19.30
2018-05-25T06:49:37.163Z,19.40
2018-05-25T06:50:37.972Z,19.40
2018-05-25T06:51:37.940Z,19.47
2018-05-25T06:52:37.540Z,19.58
2018-05-25T06:53:38.411Z,19.76
2018-05-25T06:56:36.929Z,19.70
2018-05-25T06:57:11.441Z,19.79
2018-05-25T06:58:09.940Z,19.76
2018-05-25T06:59:10.440Z,19.82
2018-05-25T07:00:09.683Z,19.75
2018-05-25T07:03:02.459Z,19.82
2018-05-25T07:04:04.035Z,19.85
2018-05-25T07:06:03.462Z,20.01
2018-05-25T07:06:42.463Z,20.04
2018-05-25T07:07:42.462Z,19.94
2018-05-25T07:08:42.464Z,20.05
2018-05-25T07:09:56.962Z,20.12
2018-05-25T07:10:42.961Z,20.16
2018-05-25T07:12:03.961Z,20.19
2018-05-25T07:12:42.965Z,20.05
2018-05-25T07:14:04.463Z,20.22
2018-05-25T07:15:04.465Z,20.37
2018-05-25T07:15:43.463Z,20.38
2018-05-25T07:16:43.473Z,20.57
2018-05-25T07:19:15.269Z,20.68
2018-05-25T07:20:15.261Z,20.66
2018-05-25T07:21:15.705Z,20.78
2018-05-25T07:24:08.503Z,20.79
2018-05-25T07:24:48.483Z,20.61
2018-05-25T07:26:07.700Z,20.64
2018-05-25T07:26:53.540Z,20.72
2018-05-25T07:27:47.492Z,20.72
2018-05-25T07:29:01.997Z,20.68
2018-05-25T07:29:50.054Z,20.76
2018-05-25T07:31:09.001Z,20.66
2018-05-25T07:31:47.469Z,20.66
2018-05-25T07:35:51.744Z,20.90
2018-05-25T07:38:23.218Z,21.00
2018-05-25T07:40:54.740Z,21.12
2018-05-25T07:42:17.216Z,21.12
2018-05-25T07:42:57.218Z,21.18
2018-05-25T07:44:02.677Z,21.38
2018-05-25T07:45:55.248Z,21.42
2018-05-25T07:46:55.251Z,21.48
2018-05-25T07:48:01.750Z,21.52
2018-05-25T07:49:16.744Z,21.53
2018-05-25T07:50:17.700Z,21.55
2018-05-25T07:50:57.743Z,21.64
2018-05-25T07:51:56.258Z,21.79
2018-05-25T07:53:18.177Z,21.83
2018-05-25T07:53:58.246Z,21.89
2018-05-25T07:55:02.246Z,21.94
2018-05-25T07:57:27.317Z,21.79
2018-05-25T07:58:51.457Z,21.82
2018-05-25T07:59:34.525Z,21.77
2018-05-25T08:00:42.541Z,21.67
2018-05-25T08:01:28.539Z,21.71
2018-05-25T08:02:28.544Z,21.82
2018-05-25T08:03:29.026Z,21.83
2018-05-25T08:04:31.026Z,21.79
2018-05-25T08:05:28.380Z,21.71
2018-05-25T08:06:50.026Z,21.56
2018-05-25T08:07:28.630Z,21.71
2018-05-25T08:08:35.524Z,21.70
2018-05-25T08:09:29.525Z,21.59
2018-05-25T08:10:50.527Z,21.59
2018-05-25T08:11:30.503Z,21.42
2018-05-25T08:12:36.030Z,21.58
2018-05-25T08:13:30.026Z,21.56
2018-05-25T08:14:30.026Z,21.64
2018-05-25T08:15:29.629Z,21.68
2018-05-25T08:16:29.733Z,21.52
2018-05-25T08:17:50.819Z,21.56
2018-05-25T08:18:34.458Z,21.46
2018-05-25T08:19:30.528Z,21.68
2018-05-25T08:20:58.026Z,21.79
2018-05-25T08:21:58.044Z,21.89
2018-05-25T08:22:45.028Z,21.83
2018-05-25T08:23:51.487Z,21.79
2018-05-25T08:24:51.588Z,21.77
2018-05-25T08:25:33.487Z,21.68
2018-05-25T08:26:33.958Z,21.86
2018-05-25T08:27:30.969Z,21.83
2018-05-25T08:28:52.049Z,21.93
2018-05-25T08:29:52.140Z,21.98
2018-05-25T08:32:03.411Z,21.96
2018-05-25T08:33:02.767Z,21.99
2018-05-25T08:34:03.417Z,21.98
2018-05-25T08:35:25.916Z,22.15
2018-05-25T08:36:30.919Z,22.26
2018-05-25T08:37:09.917Z,22.44
2018-05-25T08:38:03.401Z,22.44
2018-05-25T08:39:25.442Z,22.39
2018-05-25T08:40:04.418Z,22.35
2018-05-25T08:41:04.417Z,22.33
2018-05-25T08:42:04.423Z,22.35
2018-05-25T08:43:10.923Z,22.44
2018-05-25T08:44:04.918Z,22.51
2018-05-25T08:45:04.943Z,22.45
2018-05-25T08:46:04.919Z,22.46
2018-05-25T08:48:38.134Z,22.75
2018-05-25T08:49:39.121Z,22.84
2018-05-25T08:50:44.125Z,23.11
2018-05-25T08:51:37.735Z,23.00
2018-05-25T08:52:38.631Z,22.99
2018-05-25T08:53:41.584Z,23.12
2018-05-25T08:54:38.618Z,23.14
2018-05-25T08:57:09.658Z,23.06
2018-05-25T08:58:10.406Z,23.18
2018-05-25T08:59:09.885Z,23.15
2018-05-25T09:02:02.399Z,23.12
2018-05-25T09:02:42.160Z,23.18
2018-05-25T09:04:09.170Z,23.18
2018-05-25T09:04:56.673Z,23.09
2018-05-25T09:05:42.653Z,23.07
2018-05-25T09:06:42.664Z,23.06
2018-05-25T09:07:42.648Z,22.86
2018-05-25T09:08:42.272Z,22.78
2018-05-25T09:10:06.634Z,22.79
2018-05-25T09:10:43.157Z,22.60
2018-05-25T09:11:43.207Z,22.60
2018-05-25T09:12:45.650Z,22.48
2018-05-25T09:14:04.653Z,22.51
2018-05-25T09:15:10.659Z,22.56
2018-05-25T09:15:43.655Z,22.52
2018-05-25T09:17:06.154Z,22.45
2018-05-25T09:17:44.155Z,22.31
2018-05-25T09:18:44.158Z,22.48
2018-05-25T09:19:45.624Z,22.57
2018-05-25T09:21:04.712Z,22.84
2018-05-25T09:21:58.709Z,23.09
2018-05-25T09:22:44.655Z,23.34
2018-05-25T09:24:05.658Z,23.38
2018-05-25T09:24:44.656Z,23.31
2018-05-25T09:25:47.157Z,23.34
2018-05-25T09:27:06.156Z,23.52
2018-05-25T09:27:51.168Z,23.52
2018-05-25T09:28:45.163Z,23.47
2018-05-25T09:29:51.657Z,23.62
2018-05-25T09:30:45.658Z,23.75
2018-05-25T09:31:46.596Z,23.71
2018-05-25T09:32:45.678Z,23.63
2018-05-25T09:33:45.655Z,23.60
2018-05-25T09:36:17.447Z,23.68
2018-05-25T09:37:16.787Z,23.50
2018-05-25T09:38:16.891Z,23.45
2018-05-25T09:41:10.157Z,23.41
2018-05-25T09:42:12.597Z,23.47
2018-05-25T09:42:51.169Z,23.47
2018-05-25T09:44:09.762Z,23.12
2018-05-25T09:44:51.666Z,23.03
2018-05-25T09:45:49.019Z,23.25
2018-05-25T09:46:51.096Z,23.23
2018-05-25T09:47:50.164Z,23.41
2018-05-25T09:48:49.402Z,23.29
2018-05-25T09:49:51.603Z,23.37
2018-05-25T09:50:56.164Z,23.35
2018-05-25T09:51:49.770Z,23.26
2018-05-25T09:52:50.673Z,23.23
2018-05-25T09:53:50.672Z,23.19
2018-05-25T09:54:50.665Z,23.21
2018-05-25T09:56:14.165Z,23.26
2018-05-25T09:58:23.062Z,23.23
2018-05-25T10:00:54.404Z,23.06
2018-05-25T10:01:53.755Z,23.14
2018-05-25T10:02:53.858Z,23.03
2018-05-25T10:04:14.941Z,23.12
2018-05-25T10:04:54.911Z,23.06
2018-05-25T10:05:54.916Z,23.07
2018-05-25T10:06:54.910Z,23.07
2018-05-25T10:07:54.909Z,23.19
2018-05-25T10:08:55.409Z,23.14
2018-05-25T10:09:55.408Z,23.25
2018-05-25T10:10:55.406Z,23.22
2018-05-25T10:11:55.407Z,23.21
2018-05-25T10:12:55.908Z,23.09
2018-05-25T10:14:18.363Z,23.07
2018-05-25T10:14:55.913Z,23.21
2018-05-25T10:15:55.910Z,23.22
2018-05-25T10:16:56.414Z,23.11
2018-05-25T10:17:58.846Z,23.12
2018-05-25T10:18:56.412Z,23.06
2018-05-25T10:19:55.893Z,23.16
2018-05-25T10:21:17.911Z,23.25
2018-05-25T10:21:56.909Z,23.39
2018-05-25T10:23:02.909Z,23.42
2018-05-25T10:24:10.919Z,23.42
2018-05-25T10:25:17.513Z,23.53
2018-05-25T10:25:57.438Z,23.38
2018-05-25T10:27:11.409Z,23.39
2018-05-25T10:27:57.408Z,23.42
2018-05-25T10:28:57.408Z,23.41
2018-05-25T10:31:29.176Z,23.62
2018-05-25T10:34:21.731Z,24.00
2018-05-25T10:35:00.731Z,23.87
2018-05-25T10:36:00.717Z,23.82
2018-05-25T10:37:21.305Z,23.71
2018-05-25T10:38:01.225Z,24.00
2018-05-25T10:39:01.215Z,24.23
2018-05-25T10:41:59.855Z,24.14
2018-05-25T10:42:32.216Z,24.08
2018-05-25T10:43:54.373Z,24.09
2018-05-25T10:46:25.655Z,24.41
2018-05-25T10:47:04.658Z,24.55
2018-05-25T10:48:04.161Z,24.56
2018-05-25T10:49:05.157Z,24.66
2018-05-25T10:50:05.171Z,24.82
2018-05-25T10:51:05.191Z,24.99
2018-05-25T10:52:06.651Z,25.11
2018-05-25T10:53:05.659Z,24.89
2018-05-25T10:54:11.684Z,24.84
2018-05-25T10:56:54.693Z,24.39
2018-05-25T10:57:54.701Z,24.49
2018-05-25T10:58:55.172Z,24.41
2018-05-25T11:01:26.438Z,24.67
2018-05-25T11:02:25.817Z,24.51
2018-05-25T11:03:47.457Z,24.31
2018-05-25T11:05:26.949Z,24.37
2018-05-25T11:06:26.970Z,24.44
2018-05-25T11:08:06.913Z,24.61
2018-05-25T11:08:50.482Z,24.82
2018-05-25T11:09:51.461Z,24.87
2018-05-25T11:11:58.951Z,25.01
2018-05-25T11:13:19.959Z,25.05
2018-05-25T11:13:58.957Z,25.23
2018-05-25T11:15:20.463Z,25.48
2018-05-25T11:15:58.737Z,25.64
2018-05-25T11:16:59.458Z,25.63
2018-05-25T11:17:59.461Z,25.48
2018-05-25T11:19:22.419Z,25.30
2018-05-25T11:19:59.959Z,25.26
2018-05-25T11:21:02.906Z,25.08
2018-05-25T11:22:01.392Z,25.01
2018-05-25T11:23:02.466Z,25.04
2018-05-25T11:24:00.460Z,24.98
2018-05-25T11:25:21.460Z,24.82
2018-05-25T11:26:20.934Z,24.79
2018-05-25T11:27:01.006Z,24.67
2018-05-25T11:28:06.959Z,24.82
2018-05-25T11:29:00.960Z,24.97
2018-05-25T11:30:21.462Z,25.17
2018-05-25T11:34:03.443Z,25.57
2018-05-25T11:35:04.171Z,25.66
2018-05-25T11:36:25.215Z,25.81
2018-05-25T11:38:35.958Z,26.19
2018-05-25T11:39:35.965Z,26.20
2018-05-25T11:40:36.478Z,26.03
2018-05-25T11:44:42.004Z,25.97
2018-05-25T11:47:11.421Z,25.98
2018-05-25T11:48:11.428Z,26.03
2018-05-25T11:49:11.936Z,26.29
2018-05-25T11:50:11.935Z,26.24
2018-05-25T11:51:11.957Z,26.39
2018-05-25T11:52:33.941Z,26.31
2018-05-25T11:53:12.429Z,26.31
2018-05-25T11:54:11.665Z,26.47
2018-05-25T11:55:12.429Z,26.31
2018-05-25T11:57:44.120Z,26.34
2018-05-25T11:58:44.117Z,26.50
2018-05-25T11:59:45.582Z,26.61
2018-05-25T12:02:36.862Z,26.04
2018-05-25T12:03:15.866Z,25.97
2018-05-25T12:04:15.357Z,25.78
2018-05-25T12:05:37.370Z,25.75
2018-05-25T12:06:16.371Z,25.81
2018-05-25T12:07:30.880Z,25.85
2018-05-25T12:08:15.863Z,25.83
2018-05-25T12:09:18.880Z,25.78
2018-05-25T12:10:16.871Z,25.71
2018-05-25T12:11:16.872Z,25.76
2018-05-25T12:12:16.869Z,25.76
2018-05-25T12:13:17.371Z,25.67
2018-05-25T12:14:44.377Z,25.83
2018-05-25T12:15:37.722Z,26.01
2018-05-25T12:16:17.373Z,26.31
2018-05-25T12:17:16.989Z,26.13
2018-05-25T12:18:17.877Z,26.19
2018-05-25T12:19:17.870Z,26.13
2018-05-25T12:20:17.870Z,26.00
2018-05-25T12:21:19.832Z,26.00
2018-05-25T12:22:17.564Z,26.04
2018-05-25T12:23:17.671Z,26.23
2018-05-25T12:24:17.782Z,26.54
2018-05-25T12:25:41.871Z,26.75
2018-05-25T12:26:20.870Z,27.12
2018-05-25T12:27:20.303Z,27.39
2018-05-25T12:28:20.876Z,27.50
2018-05-25T12:29:39.914Z,27.66
2018-05-25T12:31:50.714Z,28.08
2018-05-25T12:32:50.707Z,28.11
2018-05-25T12:33:50.708Z,28.39
2018-05-25T12:34:51.208Z,28.50
2018-05-25T12:35:51.220Z,28.23
2018-05-25T12:36:51.209Z,28.33
2018-05-25T12:37:51.209Z,28.52
2018-05-25T12:40:22.286Z,28.92
2018-05-25T12:41:22.997Z,29.00
2018-05-25T12:42:23.002Z,29.18
2018-05-25T12:46:26.236Z,29.92
2018-05-25T12:47:25.580Z,29.85
2018-05-25T12:48:26.233Z,29.55
2018-05-25T12:49:49.739Z,29.66
2018-05-25T12:50:26.733Z,29.94
2018-05-25T12:51:26.734Z,29.92
2018-05-25T12:52:26.259Z,30.13
2018-05-25T12:53:33.227Z,30.13
2018-05-25T12:54:27.243Z,30.36
2018-05-25T12:55:48.232Z,30.44
2018-05-25T12:56:27.233Z,30.44
2018-05-25T12:57:27.733Z,30.48
2018-05-25T12:58:27.737Z,29.88
2018-05-25T12:59:29.212Z,29.32
2018-05-25T13:00:48.685Z,29.02
2018-05-25T13:01:28.234Z,28.70
2018-05-25T13:02:51.233Z,28.36
2018-05-25T13:03:28.232Z,27.90
2018-05-25T13:04:28.240Z,27.99
2018-05-25T13:05:27.890Z,28.33
2018-05-25T13:08:00.634Z,28.69
2018-05-25T13:09:21.149Z,28.23
2018-05-25T13:10:03.618Z,27.86
2018-05-25T13:11:14.641Z,27.49
2018-05-25T13:12:24.075Z,26.98
2018-05-25T13:14:38.144Z,27.45
2018-05-25T13:15:31.506Z,27.24
2018-05-25T13:16:53.176Z,26.83
2018-05-25T13:17:54.621Z,26.27
2018-05-25T13:18:32.649Z,25.82
2018-05-25T13:19:32.008Z,25.71
2018-05-25T13:20:32.659Z,25.72
2018-05-25T13:23:03.705Z,25.85
2018-05-25T13:24:06.878Z,25.76
2018-05-25T13:25:04.449Z,25.60
2018-05-25T13:28:03.728Z,25.51
2018-05-25T13:28:36.734Z,25.45
2018-05-25T13:29:36.118Z,25.29
2018-05-25T13:30:36.218Z,25.30
2018-05-25T13:31:37.241Z,25.31
2018-05-25T13:32:51.233Z,25.24
2018-05-25T13:33:37.234Z,25.38
2018-05-25T13:34:36.750Z,25.26
2018-05-25T13:36:37.734Z,25.53
2018-05-25T13:37:37.736Z,25.31
2018-05-25T13:38:37.736Z,25.23
2018-05-25T13:39:52.236Z,25.19
2018-05-25T13:40:38.234Z,25.08
2018-05-25T13:41:38.239Z,25.67
2018-05-25T13:42:38.241Z,26.41
2018-05-25T13:45:31.006Z,26.69
2018-05-25T13:46:09.365Z,27.33
2018-05-25T13:47:10.016Z,28.05
2018-05-25T13:48:31.519Z,28.57
2018-05-25T13:49:30.734Z,29.10
2018-05-25T13:50:10.514Z,29.62
2018-05-25T13:51:12.974Z,29.86
2018-05-25T13:53:41.513Z,30.68
2018-05-25T13:55:03.256Z,30.93
2018-05-25T13:56:03.267Z,31.40
2018-05-25T13:56:56.761Z,31.35
2018-05-25T13:57:41.993Z,31.69
2018-05-25T13:59:03.763Z,31.75
2018-05-25T13:59:42.254Z,31.69
2018-05-25T14:00:43.264Z,31.68
2018-05-25T14:02:04.260Z,31.84
2018-05-25T14:02:43.263Z,31.85
2018-05-25T14:03:43.263Z,31.41
2018-05-25T14:04:42.873Z,31.47
2018-05-25T14:05:43.766Z,31.27
2018-05-25T14:06:43.779Z,30.01
2018-05-25T14:08:04.260Z,29.20
2018-05-25T14:08:44.265Z,29.07
2018-05-25T14:09:45.743Z,29.10
2018-05-25T14:10:44.263Z,29.00
2018-05-25T14:12:05.264Z,29.29
2018-05-25T14:12:44.763Z,28.65
2018-05-25T14:13:44.763Z,28.30
2018-05-25T14:14:45.198Z,28.32
2018-05-25T14:15:44.768Z,28.69
2018-05-25T14:16:48.262Z,29.00
2018-05-25T14:17:52.268Z,29.37
2018-05-25T14:18:45.262Z,29.70
2018-05-25T14:19:45.764Z,29.79
2018-05-25T14:20:51.770Z,30.06
2018-05-25T14:21:45.764Z,29.30
2018-05-25T14:22:45.764Z,29.33
2018-05-25T14:23:45.249Z,29.35
2018-05-25T14:24:46.271Z,28.98
2018-05-25T14:25:46.271Z,28.65
2018-05-25T14:27:07.268Z,28.24
2018-05-25T14:27:45.744Z,27.96
2018-05-25T14:29:07.774Z,27.63
2018-05-25T14:30:08.286Z,27.20
2018-05-25T14:30:46.765Z,26.86
2018-05-25T14:31:46.764Z,26.71
2018-05-25T14:32:48.700Z,26.57
2018-05-25T14:33:47.266Z,26.47
2018-05-25T14:34:47.265Z,26.39
2018-05-25T14:36:07.792Z,26.20
2018-05-25T14:36:47.766Z,25.98
2018-05-25T14:37:47.767Z,25.81
2018-05-25T14:38:47.765Z,25.71
2018-05-25T14:39:47.765Z,25.66
2018-05-25T14:41:10.724Z,25.51
2018-05-25T14:42:08.438Z,25.56
2018-05-25T14:44:19.775Z,25.36
2018-05-25T14:45:20.659Z,25.34
2018-05-25T14:46:19.306Z,25.41
2018-05-25T14:47:42.225Z,25.29
2018-05-25T14:48:40.566Z,25.11
2018-05-25T14:50:51.844Z,25.14
2018-05-25T14:51:51.852Z,25.16
2018-05-25T14:52:51.341Z,25.22
2018-05-25T14:53:53.862Z,25.29
2018-05-25T14:54:51.557Z,25.14
2018-05-25T14:55:53.827Z,25.11
2018-05-25T14:56:51.866Z,25.14
2018-05-25T14:57:58.855Z,25.12